sensor_id;sensor_type;location;lat;lon;timestamp;P1;durP1;ratioP1;P2;durP2;ratioP2
59193;SDS011;44967;48.598;15.650;2023-08-01T00:00:00;2.13;;;1.83;;
59193;SDS011;44967;48.598;15.650;2023-08-01T00:02:26;2.85;;;1.98;;
59193;SDS011;44967;48.598;15.650;2023-08-01T00:04:52;4.20;;;2.00;;
59193;SDS011;44967;48.598;15.650;2023-08-01T00:07:18;2.40;;;1.75;;
59193;SDS011;44967;48.598;15.650;2023-08-01T00:09:43;3.60;;;1.95;;
59193;SDS011;44967;48.598;15.650;2023-08-01T00:12:09;2.35;;;1.42;;
59193;SDS011;44967;48.598;15.650;2023-08-01T00:14:35;1.85;;;1.63;;
59193;SDS011;44967;48.598;15.650;2023-08-01T00:17:01;2.15;;;1.55;;
59193;SDS011;44967;48.598;15.650;2023-08-01T00:19:27;2.53;;;1.75;;
59193;SDS011;44967;48.598;15.650;2023-08-01T00:21:53;2.97;;;2.00;;
59193;SDS011;44967;48.598;15.650;2023-08-01T00:24:19;3.13;;;1.77;;
59193;SDS011;44967;48.598;15.650;2023-08-01T00:26:45;2.63;;;1.77;;
59193;SDS011;44967;48.598;15.650;2023-08-01T00:29:13;3.00;;;1.90;;
59193;SDS011;44967;48.598;15.650;2023-08-01T00:31:39;1.65;;;1.52;;
59193;SDS011;44967;48.598;15.650;2023-08-01T00:34:05;3.28;;;1.98;;
59193;SDS011;44967;48.598;15.650;2023-08-01T00:36:31;2.30;;;1.90;;
59193;SDS011;44967;48.598;15.650;2023-08-01T00:38:57;2.38;;;1.80;;
59193;SDS011;44967;48.598;15.650;2023-08-01T00:41:23;3.38;;;2.05;;
59193;SDS011;44967;48.598;15.650;2023-08-01T00:43:48;3.97;;;1.85;;
59193;SDS011;44967;48.598;15.650;2023-08-01T00:46:14;3.45;;;1.65;;
59193;SDS011;44967;48.598;15.650;2023-08-01T00:48:40;2.95;;;1.88;;
59193;SDS011;44967;48.598;15.650;2023-08-01T00:51:07;3.28;;;2.25;;
59193;SDS011;44967;48.598;15.650;2023-08-01T00:53:35;2.78;;;2.00;;
59193;SDS011;44967;48.598;15.650;2023-08-01T00:56:01;3.38;;;2.33;;
59193;SDS011;44967;48.598;15.650;2023-08-01T00:58:27;4.03;;;2.97;;
59193;SDS011;44967;48.598;15.650;2023-08-01T01:00:53;4.07;;;2.80;;
59193;SDS011;44967;48.598;15.650;2023-08-01T01:03:20;4.28;;;2.80;;
59193;SDS011;44967;48.598;15.650;2023-08-01T01:05:53;3.67;;;2.30;;
59193;SDS011;44967;48.598;15.650;2023-08-01T01:08:26;2.88;;;1.98;;
59193;SDS011;44967;48.598;15.650;2023-08-01T01:10:52;2.50;;;2.13;;
59193;SDS011;44967;48.598;15.650;2023-08-01T01:13:17;2.45;;;1.63;;
59193;SDS011;44967;48.598;15.650;2023-08-01T01:15:43;2.92;;;2.15;;
59193;SDS011;44967;48.598;15.650;2023-08-01T01:18:09;2.75;;;2.17;;
59193;SDS011;44967;48.598;15.650;2023-08-01T01:20:35;3.78;;;2.63;;
59193;SDS011;44967;48.598;15.650;2023-08-01T01:23:02;3.13;;;2.05;;
59193;SDS011;44967;48.598;15.650;2023-08-01T01:25:29;2.97;;;2.38;;
59193;SDS011;44967;48.598;15.650;2023-08-01T01:27:56;5.25;;;2.30;;
59193;SDS011;44967;48.598;15.650;2023-08-01T01:30:23;3.58;;;2.33;;
59193;SDS011;44967;48.598;15.650;2023-08-01T01:32:49;4.50;;;2.50;;
59193;SDS011;44967;48.598;15.650;2023-08-01T01:35:15;2.28;;;1.98;;
59193;SDS011;44967;48.598;15.650;2023-08-01T01:37:41;3.15;;;2.28;;
59193;SDS011;44967;48.598;15.650;2023-08-01T01:40:07;1.80;;;1.60;;
59193;SDS011;44967;48.598;15.650;2023-08-01T01:42:34;4.00;;;2.00;;
59193;SDS011;44967;48.598;15.650;2023-08-01T01:44:59;3.25;;;2.00;;
59193;SDS011;44967;48.598;15.650;2023-08-01T01:47:25;1.98;;;1.77;;
59193;SDS011;44967;48.598;15.650;2023-08-01T01:49:51;2.63;;;2.00;;
59193;SDS011;44967;48.598;15.650;2023-08-01T01:52:16;3.28;;;2.10;;
59193;SDS011;44967;48.598;15.650;2023-08-01T01:54:42;2.97;;;2.28;;
59193;SDS011;44967;48.598;15.650;2023-08-01T01:57:08;3.72;;;1.67;;
59193;SDS011;44967;48.598;15.650;2023-08-01T01:59:34;2.92;;;1.90;;
59193;SDS011;44967;48.598;15.650;2023-08-01T02:01:59;3.45;;;2.20;;
59193;SDS011;44967;48.598;15.650;2023-08-01T02:04:25;2.53;;;1.98;;
59193;SDS011;44967;48.598;15.650;2023-08-01T02:06:51;3.72;;;2.20;;
59193;SDS011;44967;48.598;15.650;2023-08-01T02:09:18;2.10;;;1.67;;
59193;SDS011;44967;48.598;15.650;2023-08-01T02:11:44;2.38;;;2.17;;
59193;SDS011;44967;48.598;15.650;2023-08-01T02:14:09;2.08;;;1.88;;
59193;SDS011;44967;48.598;15.650;2023-08-01T02:16:35;2.90;;;1.90;;
59193;SDS011;44967;48.598;15.650;2023-08-01T02:19:01;2.17;;;1.83;;
59193;SDS011;44967;48.598;15.650;2023-08-01T02:21:27;2.63;;;2.15;;
59193;SDS011;44967;48.598;15.650;2023-08-01T02:23:52;3.30;;;1.92;;
59193;SDS011;44967;48.598;15.650;2023-08-01T02:26:18;2.08;;;1.88;;
59193;SDS011;44967;48.598;15.650;2023-08-01T02:28:43;2.20;;;2.00;;
59193;SDS011;44967;48.598;15.650;2023-08-01T02:31:10;4.60;;;1.83;;
59193;SDS011;44967;48.598;15.650;2023-08-01T02:33:36;2.90;;;1.80;;
59193;SDS011;44967;48.598;15.650;2023-08-01T02:36:02;4.13;;;2.22;;
59193;SDS011;44967;48.598;15.650;2023-08-01T02:38:28;3.05;;;1.77;;
59193;SDS011;44967;48.598;15.650;2023-08-01T02:40:54;2.70;;;1.77;;
59193;SDS011;44967;48.598;15.650;2023-08-01T02:43:19;3.75;;;2.15;;
59193;SDS011;44967;48.598;15.650;2023-08-01T02:45:45;4.03;;;2.30;;
59193;SDS011;44967;48.598;15.650;2023-08-01T02:48:11;2.67;;;2.10;;
59193;SDS011;44967;48.598;15.650;2023-08-01T02:50:37;2.90;;;2.15;;
59193;SDS011;44967;48.598;15.650;2023-08-01T02:53:04;2.95;;;2.13;;
59193;SDS011;44967;48.598;15.650;2023-08-01T02:55:30;2.50;;;2.30;;
59193;SDS011;44967;48.598;15.650;2023-08-01T02:57:56;2.75;;;2.10;;
59193;SDS011;44967;48.598;15.650;2023-08-01T03:00:21;2.97;;;2.08;;
59193;SDS011;44967;48.598;15.650;2023-08-01T03:02:47;2.85;;;2.08;;
59193;SDS011;44967;48.598;15.650;2023-08-01T03:05:12;3.38;;;2.25;;
59193;SDS011;44967;48.598;15.650;2023-08-01T03:07:38;3.10;;;2.20;;
59193;SDS011;44967;48.598;15.650;2023-08-01T03:10:04;3.08;;;2.28;;
59193;SDS011;44967;48.598;15.650;2023-08-01T03:12:32;3.03;;;2.60;;
59193;SDS011;44967;48.598;15.650;2023-08-01T03:14:58;3.78;;;2.38;;
59193;SDS011;44967;48.598;15.650;2023-08-01T03:17:23;3.53;;;2.30;;
59193;SDS011;44967;48.598;15.650;2023-08-01T03:19:49;4.90;;;2.65;;
59193;SDS011;44967;48.598;15.650;2023-08-01T03:22:15;3.33;;;2.78;;
59193;SDS011;44967;48.598;15.650;2023-08-01T03:24:41;2.15;;;1.95;;
59193;SDS011;44967;48.598;15.650;2023-08-01T03:27:07;3.17;;;2.33;;
59193;SDS011;44967;48.598;15.650;2023-08-01T03:29:33;3.83;;;2.55;;
59193;SDS011;44967;48.598;15.650;2023-08-01T03:31:58;7.60;;;2.90;;
59193;SDS011;44967;48.598;15.650;2023-08-01T03:34:24;3.20;;;2.35;;
59193;SDS011;44967;48.598;15.650;2023-08-01T03:36:52;3.38;;;2.55;;
59193;SDS011;44967;48.598;15.650;2023-08-01T03:39:17;2.97;;;2.50;;
59193;SDS011;44967;48.598;15.650;2023-08-01T03:41:43;5.47;;;2.60;;
59193;SDS011;44967;48.598;15.650;2023-08-01T03:44:09;2.78;;;2.30;;
59193;SDS011;44967;48.598;15.650;2023-08-01T03:46:34;3.70;;;2.30;;
59193;SDS011;44967;48.598;15.650;2023-08-01T03:49:01;2.72;;;2.45;;
59193;SDS011;44967;48.598;15.650;2023-08-01T03:51:26;4.15;;;2.67;;
59193;SDS011;44967;48.598;15.650;2023-08-01T03:53:52;5.03;;;2.53;;
59193;SDS011;44967;48.598;15.650;2023-08-01T03:56:17;3.08;;;2.50;;
59193;SDS011;44967;48.598;15.650;2023-08-01T03:58:43;4.20;;;2.63;;
59193;SDS011;44967;48.598;15.650;2023-08-01T04:01:09;4.35;;;2.90;;
59193;SDS011;44967;48.598;15.650;2023-08-01T04:03:34;6.10;;;3.00;;
59193;SDS011;44967;48.598;15.650;2023-08-01T04:06:00;3.70;;;3.20;;
59193;SDS011;44967;48.598;15.650;2023-08-01T04:08:26;6.53;;;3.25;;
59193;SDS011;44967;48.598;15.650;2023-08-01T04:10:51;6.50;;;3.10;;
59193;SDS011;44967;48.598;15.650;2023-08-01T04:13:17;4.80;;;3.28;;
59193;SDS011;44967;48.598;15.650;2023-08-01T04:15:43;3.25;;;2.90;;
59193;SDS011;44967;48.598;15.650;2023-08-01T04:18:09;4.07;;;2.50;;
59193;SDS011;44967;48.598;15.650;2023-08-01T04:20:34;4.63;;;2.95;;
59193;SDS011;44967;48.598;15.650;2023-08-01T04:23:00;4.50;;;3.72;;
59193;SDS011;44967;48.598;15.650;2023-08-01T04:25:26;2.67;;;2.47;;
59193;SDS011;44967;48.598;15.650;2023-08-01T04:27:52;4.18;;;2.75;;
59193;SDS011;44967;48.598;15.650;2023-08-01T04:30:18;3.60;;;2.65;;
59193;SDS011;44967;48.598;15.650;2023-08-01T04:32:44;4.78;;;2.90;;
59193;SDS011;44967;48.598;15.650;2023-08-01T04:35:10;4.28;;;2.75;;
59193;SDS011;44967;48.598;15.650;2023-08-01T04:37:36;4.75;;;3.10;;
59193;SDS011;44967;48.598;15.650;2023-08-01T04:40:01;4.50;;;2.72;;
59193;SDS011;44967;48.598;15.650;2023-08-01T04:42:28;3.60;;;3.03;;
59193;SDS011;44967;48.598;15.650;2023-08-01T04:44:55;4.90;;;3.25;;
59193;SDS011;44967;48.598;15.650;2023-08-01T04:47:21;6.70;;;2.92;;
59193;SDS011;44967;48.598;15.650;2023-08-01T04:49:46;4.13;;;3.10;;
59193;SDS011;44967;48.598;15.650;2023-08-01T04:52:12;4.18;;;2.92;;
59193;SDS011;44967;48.598;15.650;2023-08-01T04:54:38;3.13;;;2.63;;
59193;SDS011;44967;48.598;15.650;2023-08-01T04:57:04;3.17;;;2.88;;
59193;SDS011;44967;48.598;15.650;2023-08-01T04:59:30;4.05;;;2.88;;
59193;SDS011;44967;48.598;15.650;2023-08-01T05:01:56;3.88;;;3.38;;
59193;SDS011;44967;48.598;15.650;2023-08-01T05:04:21;4.50;;;2.92;;
59193;SDS011;44967;48.598;15.650;2023-08-01T05:06:47;5.03;;;3.30;;
59193;SDS011;44967;48.598;15.650;2023-08-01T05:09:13;4.15;;;3.22;;
59193;SDS011;44967;48.598;15.650;2023-08-01T05:11:38;4.57;;;2.65;;
59193;SDS011;44967;48.598;15.650;2023-08-01T05:14:04;3.47;;;2.75;;
59193;SDS011;44967;48.598;15.650;2023-08-01T05:16:30;4.13;;;3.17;;
59193;SDS011;44967;48.598;15.650;2023-08-01T05:18:56;4.80;;;3.00;;
59193;SDS011;44967;48.598;15.650;2023-08-01T05:21:22;3.97;;;2.90;;
59193;SDS011;44967;48.598;15.650;2023-08-01T05:23:48;3.40;;;2.90;;
59193;SDS011;44967;48.598;15.650;2023-08-01T05:26:13;3.80;;;3.10;;
59193;SDS011;44967;48.598;15.650;2023-08-01T05:28:39;6.32;;;2.90;;
59193;SDS011;44967;48.598;15.650;2023-08-01T05:31:05;3.28;;;2.90;;
59193;SDS011;44967;48.598;15.650;2023-08-01T05:33:30;3.67;;;2.78;;
59193;SDS011;44967;48.598;15.650;2023-08-01T05:35:56;3.38;;;3.08;;
59193;SDS011;44967;48.598;15.650;2023-08-01T05:38:22;3.60;;;2.75;;
59193;SDS011;44967;48.598;15.650;2023-08-01T05:40:47;4.20;;;2.95;;
59193;SDS011;44967;48.598;15.650;2023-08-01T05:43:13;3.92;;;3.05;;
59193;SDS011;44967;48.598;15.650;2023-08-01T05:45:39;3.42;;;2.88;;
59193;SDS011;44967;48.598;15.650;2023-08-01T05:48:05;3.35;;;2.90;;
59193;SDS011;44967;48.598;15.650;2023-08-01T05:50:31;3.47;;;3.17;;
59193;SDS011;44967;48.598;15.650;2023-08-01T05:52:56;5.32;;;3.47;;
59193;SDS011;44967;48.598;15.650;2023-08-01T05:55:22;3.97;;;3.20;;
59193;SDS011;44967;48.598;15.650;2023-08-01T05:57:48;4.68;;;2.90;;
59193;SDS011;44967;48.598;15.650;2023-08-01T06:00:18;4.03;;;2.92;;
59193;SDS011;44967;48.598;15.650;2023-08-01T06:02:47;4.35;;;3.25;;
59193;SDS011;44967;48.598;15.650;2023-08-01T06:05:13;3.88;;;3.15;;
59193;SDS011;44967;48.598;15.650;2023-08-01T06:07:39;3.75;;;3.25;;
59193;SDS011;44967;48.598;15.650;2023-08-01T06:10:04;4.28;;;3.03;;
59193;SDS011;44967;48.598;15.650;2023-08-01T06:12:30;3.92;;;3.30;;
59193;SDS011;44967;48.598;15.650;2023-08-01T06:14:56;5.85;;;3.40;;
59193;SDS011;44967;48.598;15.650;2023-08-01T06:17:22;3.47;;;2.92;;
59193;SDS011;44967;48.598;15.650;2023-08-01T06:19:47;3.72;;;3.35;;
59193;SDS011;44967;48.598;15.650;2023-08-01T06:22:15;3.58;;;2.90;;
59193;SDS011;44967;48.598;15.650;2023-08-01T06:24:41;6.05;;;3.08;;
59193;SDS011;44967;48.598;15.650;2023-08-01T06:27:06;4.18;;;3.50;;
59193;SDS011;44967;48.598;15.650;2023-08-01T06:29:32;4.63;;;3.50;;
59193;SDS011;44967;48.598;15.650;2023-08-01T06:31:57;4.25;;;3.58;;
59193;SDS011;44967;48.598;15.650;2023-08-01T06:34:23;5.68;;;3.63;;
59193;SDS011;44967;48.598;15.650;2023-08-01T06:36:50;6.10;;;4.70;;
59193;SDS011;44967;48.598;15.650;2023-08-01T06:39:16;5.35;;;4.85;;
59193;SDS011;44967;48.598;15.650;2023-08-01T06:41:41;6.03;;;4.60;;
59193;SDS011;44967;48.598;15.650;2023-08-01T06:44:08;5.75;;;4.40;;
59193;SDS011;44967;48.598;15.650;2023-08-01T06:46:34;5.95;;;4.35;;
59193;SDS011;44967;48.598;15.650;2023-08-01T06:49:00;5.70;;;4.50;;
59193;SDS011;44967;48.598;15.650;2023-08-01T06:51:26;8.65;;;5.28;;
59193;SDS011;44967;48.598;15.650;2023-08-01T06:53:51;6.28;;;4.53;;
59193;SDS011;44967;48.598;15.650;2023-08-01T06:56:17;4.60;;;4.03;;
59193;SDS011;44967;48.598;15.650;2023-08-01T06:58:43;5.93;;;4.47;;
59193;SDS011;44967;48.598;15.650;2023-08-01T07:01:09;7.47;;;4.75;;
59193;SDS011;44967;48.598;15.650;2023-08-01T07:03:34;6.68;;;4.32;;
59193;SDS011;44967;48.598;15.650;2023-08-01T07:06:00;6.60;;;4.70;;
59193;SDS011;44967;48.598;15.650;2023-08-01T07:08:25;7.63;;;4.78;;
59193;SDS011;44967;48.598;15.650;2023-08-01T07:10:51;6.95;;;4.65;;
59193;SDS011;44967;48.598;15.650;2023-08-01T07:13:17;9.80;;;4.95;;
59193;SDS011;44967;48.598;15.650;2023-08-01T07:15:44;6.03;;;5.20;;
59193;SDS011;44967;48.598;15.650;2023-08-01T07:18:10;6.05;;;5.43;;
59193;SDS011;44967;48.598;15.650;2023-08-01T07:20:36;5.88;;;5.22;;
59193;SDS011;44967;48.598;15.650;2023-08-01T07:23:01;5.47;;;4.82;;
59193;SDS011;44967;48.598;15.650;2023-08-01T07:25:27;5.68;;;4.55;;
59193;SDS011;44967;48.598;15.650;2023-08-01T07:27:53;4.82;;;4.25;;
59193;SDS011;44967;48.598;15.650;2023-08-01T07:30:18;7.03;;;5.50;;
59193;SDS011;44967;48.598;15.650;2023-08-01T07:32:44;7.13;;;6.43;;
59193;SDS011;44967;48.598;15.650;2023-08-01T07:35:10;5.65;;;4.57;;
59193;SDS011;44967;48.598;15.650;2023-08-01T07:37:36;4.35;;;3.67;;
59193;SDS011;44967;48.598;15.650;2023-08-01T07:40:04;6.15;;;4.53;;
59193;SDS011;44967;48.598;15.650;2023-08-01T07:42:31;6.47;;;4.22;;
59193;SDS011;44967;48.598;15.650;2023-08-01T07:44:56;5.60;;;3.80;;
59193;SDS011;44967;48.598;15.650;2023-08-01T07:47:22;4.60;;;3.15;;
59193;SDS011;44967;48.598;15.650;2023-08-01T07:49:49;4.30;;;3.17;;
59193;SDS011;44967;48.598;15.650;2023-08-01T07:52:16;6.30;;;3.85;;
59193;SDS011;44967;48.598;15.650;2023-08-01T07:54:41;4.40;;;3.38;;
59193;SDS011;44967;48.598;15.650;2023-08-01T07:57:07;5.57;;;3.42;;
59193;SDS011;44967;48.598;15.650;2023-08-01T07:59:33;4.18;;;3.00;;
59193;SDS011;44967;48.598;15.650;2023-08-01T08:01:58;5.63;;;3.47;;
59193;SDS011;44967;48.598;15.650;2023-08-01T08:04:24;5.32;;;3.47;;
59193;SDS011;44967;48.598;15.650;2023-08-01T08:06:49;4.22;;;3.03;;
59193;SDS011;44967;48.598;15.650;2023-08-01T08:09:17;5.82;;;3.10;;
59193;SDS011;44967;48.598;15.650;2023-08-01T08:11:42;4.72;;;3.35;;
59193;SDS011;44967;48.598;15.650;2023-08-01T08:14:08;3.97;;;3.15;;
59193;SDS011;44967;48.598;15.650;2023-08-01T08:16:34;4.47;;;3.47;;
59193;SDS011;44967;48.598;15.650;2023-08-01T08:19:00;3.92;;;3.30;;
59193;SDS011;44967;48.598;15.650;2023-08-01T08:21:26;4.80;;;3.45;;
59193;SDS011;44967;48.598;15.650;2023-08-01T08:23:51;4.18;;;3.13;;
59193;SDS011;44967;48.598;15.650;2023-08-01T08:26:17;4.07;;;2.95;;
59193;SDS011;44967;48.598;15.650;2023-08-01T08:28:42;5.80;;;3.60;;
59193;SDS011;44967;48.598;15.650;2023-08-01T08:31:08;4.15;;;3.35;;
59193;SDS011;44967;48.598;15.650;2023-08-01T08:33:34;4.15;;;3.13;;
59193;SDS011;44967;48.598;15.650;2023-08-01T08:36:00;5.32;;;3.25;;
59193;SDS011;44967;48.598;15.650;2023-08-01T08:38:25;4.85;;;3.80;;
59193;SDS011;44967;48.598;15.650;2023-08-01T08:41:11;6.22;;;3.47;;
59193;SDS011;44967;48.598;15.650;2023-08-01T08:43:39;3.97;;;3.28;;
59193;SDS011;44967;48.598;15.650;2023-08-01T08:46:06;5.75;;;4.40;;
59193;SDS011;44967;48.598;15.650;2023-08-01T08:48:34;4.47;;;3.47;;
59193;SDS011;44967;48.598;15.650;2023-08-01T08:51:01;4.45;;;3.38;;
59193;SDS011;44967;48.598;15.650;2023-08-01T08:53:28;4.82;;;3.42;;
59193;SDS011;44967;48.598;15.650;2023-08-01T08:55:55;5.75;;;3.47;;
59193;SDS011;44967;48.598;15.650;2023-08-01T08:58:21;5.47;;;3.60;;
59193;SDS011;44967;48.598;15.650;2023-08-01T09:00:49;5.88;;;3.90;;
59193;SDS011;44967;48.598;15.650;2023-08-01T09:03:15;4.45;;;3.67;;
59193;SDS011;44967;48.598;15.650;2023-08-01T09:05:44;6.22;;;4.03;;
59193;SDS011;44967;48.598;15.650;2023-08-01T09:08:21;5.28;;;4.20;;
59193;SDS011;44967;48.598;15.650;2023-08-01T09:10:49;5.63;;;3.83;;
59193;SDS011;44967;48.598;15.650;2023-08-01T09:13:15;5.63;;;3.85;;
59193;SDS011;44967;48.598;15.650;2023-08-01T09:15:41;6.82;;;4.18;;
59193;SDS011;44967;48.598;15.650;2023-08-01T09:18:10;5.28;;;3.67;;
59193;SDS011;44967;48.598;15.650;2023-08-01T09:20:40;5.20;;;3.33;;
59193;SDS011;44967;48.598;15.650;2023-08-01T09:23:13;5.07;;;3.10;;
59193;SDS011;44967;48.598;15.650;2023-08-01T09:25:39;6.07;;;4.07;;
59193;SDS011;44967;48.598;15.650;2023-08-01T09:28:15;3.47;;;3.08;;
59193;SDS011;44967;48.598;15.650;2023-08-01T09:30:54;4.47;;;3.60;;
59193;SDS011;44967;48.598;15.650;2023-08-01T09:33:21;4.82;;;3.17;;
59193;SDS011;44967;48.598;15.650;2023-08-01T09:35:50;6.63;;;4.07;;
59193;SDS011;44967;48.598;15.650;2023-08-01T09:38:17;4.22;;;3.50;;
59193;SDS011;44967;48.598;15.650;2023-08-01T09:40:44;7.13;;;3.78;;
59193;SDS011;44967;48.598;15.650;2023-08-01T09:43:11;4.68;;;3.42;;
59193;SDS011;44967;48.598;15.650;2023-08-01T09:45:37;5.57;;;3.75;;
59193;SDS011;44967;48.598;15.650;2023-08-01T09:48:03;5.50;;;3.88;;
59193;SDS011;44967;48.598;15.650;2023-08-01T09:50:29;5.22;;;3.80;;
59193;SDS011;44967;48.598;15.650;2023-08-01T09:52:54;15.68;;;11.98;;
59193;SDS011;44967;48.598;15.650;2023-08-01T09:55:25;6.30;;;5.70;;
59193;SDS011;44967;48.598;15.650;2023-08-01T09:58:00;7.13;;;5.28;;
59193;SDS011;44967;48.598;15.650;2023-08-01T10:00:26;6.20;;;5.30;;
59193;SDS011;44967;48.598;15.650;2023-08-01T10:02:55;6.57;;;4.78;;
59193;SDS011;44967;48.598;15.650;2023-08-01T10:05:26;6.35;;;4.88;;
59193;SDS011;44967;48.598;15.650;2023-08-01T10:07:57;6.40;;;4.85;;
59193;SDS011;44967;48.598;15.650;2023-08-01T10:10:24;5.53;;;4.28;;
59193;SDS011;44967;48.598;15.650;2023-08-01T10:12:50;5.47;;;4.18;;
59193;SDS011;44967;48.598;15.650;2023-08-01T10:15:17;7.72;;;5.18;;
59193;SDS011;44967;48.598;15.650;2023-08-01T10:17:42;5.88;;;4.78;;
59193;SDS011;44967;48.598;15.650;2023-08-01T10:20:10;6.85;;;5.13;;
59193;SDS011;44967;48.598;15.650;2023-08-01T10:22:37;7.60;;;6.15;;
59193;SDS011;44967;48.598;15.650;2023-08-01T10:25:05;8.48;;;5.63;;
59193;SDS011;44967;48.598;15.650;2023-08-01T10:27:32;9.27;;;6.93;;
59193;SDS011;44967;48.598;15.650;2023-08-01T10:30:01;7.60;;;5.38;;
59193;SDS011;44967;48.598;15.650;2023-08-01T10:32:33;6.47;;;5.38;;
59193;SDS011;44967;48.598;15.650;2023-08-01T10:35:01;8.35;;;6.38;;
59193;SDS011;44967;48.598;15.650;2023-08-01T10:37:27;9.00;;;6.82;;
59193;SDS011;44967;48.598;15.650;2023-08-01T10:40:12;7.45;;;6.47;;
59193;SDS011;44967;48.598;15.650;2023-08-01T10:42:41;7.07;;;6.30;;
59193;SDS011;44967;48.598;15.650;2023-08-01T10:45:19;9.27;;;6.60;;
59193;SDS011;44967;48.598;15.650;2023-08-01T10:47:47;8.30;;;6.47;;
59193;SDS011;44967;48.598;15.650;2023-08-01T10:50:14;8.40;;;6.65;;
59193;SDS011;44967;48.598;15.650;2023-08-01T10:52:41;7.53;;;6.35;;
59193;SDS011;44967;48.598;15.650;2023-08-01T10:55:07;8.27;;;6.03;;
59193;SDS011;44967;48.598;15.650;2023-08-01T10:57:37;7.63;;;5.40;;
59193;SDS011;44967;48.598;15.650;2023-08-01T11:00:05;5.78;;;5.18;;
59193;SDS011;44967;48.598;15.650;2023-08-01T11:02:35;7.15;;;5.90;;
59193;SDS011;44967;48.598;15.650;2023-08-01T11:05:02;5.95;;;4.88;;
59193;SDS011;44967;48.598;15.650;2023-08-01T11:07:29;10.30;;;5.93;;
59193;SDS011;44967;48.598;15.650;2023-08-01T11:10:02;7.43;;;6.00;;
59193;SDS011;44967;48.598;15.650;2023-08-01T11:12:39;8.10;;;5.43;;
59193;SDS011;44967;48.598;15.650;2023-08-01T11:15:08;8.35;;;5.20;;
59193;SDS011;44967;48.598;15.650;2023-08-01T11:17:36;6.43;;;5.72;;
59193;SDS011;44967;48.598;15.650;2023-08-01T11:20:03;7.53;;;6.10;;
59193;SDS011;44967;48.598;15.650;2023-08-01T11:22:33;6.93;;;5.43;;
59193;SDS011;44967;48.598;15.650;2023-08-01T11:24:59;6.32;;;5.60;;
59193;SDS011;44967;48.598;15.650;2023-08-01T11:27:26;7.68;;;4.97;;
59193;SDS011;44967;48.598;15.650;2023-08-01T11:29:52;6.88;;;5.28;;
59193;SDS011;44967;48.598;15.650;2023-08-01T11:32:18;7.82;;;4.95;;
59193;SDS011;44967;48.598;15.650;2023-08-01T11:34:48;8.85;;;5.60;;
59193;SDS011;44967;48.598;15.650;2023-08-01T11:37:15;8.68;;;5.03;;
59193;SDS011;44967;48.598;15.650;2023-08-01T11:39:45;5.85;;;4.80;;
59193;SDS011;44967;48.598;15.650;2023-08-01T11:42:16;9.05;;;4.43;;
59193;SDS011;44967;48.598;15.650;2023-08-01T11:44:42;5.43;;;4.28;;
59193;SDS011;44967;48.598;15.650;2023-08-01T11:47:15;6.13;;;4.03;;
59193;SDS011;44967;48.598;15.650;2023-08-01T11:49:48;5.82;;;4.55;;
59193;SDS011;44967;48.598;15.650;2023-08-01T11:52:27;8.50;;;5.00;;
59193;SDS011;44967;48.598;15.650;2023-08-01T11:54:54;6.25;;;3.90;;
59193;SDS011;44967;48.598;15.650;2023-08-01T11:57:23;5.63;;;4.22;;
59193;SDS011;44967;48.598;15.650;2023-08-01T11:59:49;6.32;;;4.32;;
59193;SDS011;44967;48.598;15.650;2023-08-01T12:02:26;4.60;;;3.97;;
59193;SDS011;44967;48.598;15.650;2023-08-01T12:04:54;5.57;;;3.90;;
59193;SDS011;44967;48.598;15.650;2023-08-01T12:07:20;7.70;;;4.30;;
59193;SDS011;44967;48.598;15.650;2023-08-01T12:09:56;5.00;;;3.95;;
59193;SDS011;44967;48.598;15.650;2023-08-01T12:12:23;6.65;;;3.70;;
59193;SDS011;44967;48.598;15.650;2023-08-01T12:14:51;5.68;;;3.92;;
59193;SDS011;44967;48.598;15.650;2023-08-01T12:17:18;5.65;;;4.53;;
59193;SDS011;44967;48.598;15.650;2023-08-01T12:19:43;7.57;;;3.97;;
59193;SDS011;44967;48.598;15.650;2023-08-01T12:22:09;5.45;;;3.80;;
59193;SDS011;44967;48.598;15.650;2023-08-01T12:24:35;4.63;;;3.53;;
59193;SDS011;44967;48.598;15.650;2023-08-01T12:27:04;5.43;;;4.18;;
59193;SDS011;44967;48.598;15.650;2023-08-01T12:29:31;7.10;;;4.25;;
59193;SDS011;44967;48.598;15.650;2023-08-01T12:31:56;5.10;;;3.95;;
59193;SDS011;44967;48.598;15.650;2023-08-01T12:34:22;6.30;;;4.32;;
59193;SDS011;44967;48.598;15.650;2023-08-01T12:36:47;4.30;;;3.55;;
59193;SDS011;44967;48.598;15.650;2023-08-01T12:39:13;5.47;;;3.88;;
59193;SDS011;44967;48.598;15.650;2023-08-01T12:41:38;6.45;;;4.40;;
59193;SDS011;44967;48.598;15.650;2023-08-01T12:44:04;5.30;;;4.30;;
59193;SDS011;44967;48.598;15.650;2023-08-01T12:46:30;5.97;;;4.40;;
59193;SDS011;44967;48.598;15.650;2023-08-01T12:48:56;6.13;;;3.70;;
59193;SDS011;44967;48.598;15.650;2023-08-01T12:51:21;6.70;;;4.70;;
59193;SDS011;44967;48.598;15.650;2023-08-01T12:53:47;5.72;;;4.35;;
59193;SDS011;44967;48.598;15.650;2023-08-01T12:56:13;8.27;;;4.93;;
59193;SDS011;44967;48.598;15.650;2023-08-01T12:58:38;6.20;;;4.30;;
59193;SDS011;44967;48.598;15.650;2023-08-01T13:01:04;4.97;;;4.22;;
59193;SDS011;44967;48.598;15.650;2023-08-01T13:03:30;6.22;;;4.32;;
59193;SDS011;44967;48.598;15.650;2023-08-01T13:05:55;4.85;;;3.78;;
59193;SDS011;44967;48.598;15.650;2023-08-01T13:08:22;6.25;;;4.28;;
59193;SDS011;44967;48.598;15.650;2023-08-01T13:10:48;5.93;;;4.28;;
59193;SDS011;44967;48.598;15.650;2023-08-01T13:13:15;6.50;;;4.63;;
59193;SDS011;44967;48.598;15.650;2023-08-01T13:15:41;6.07;;;4.13;;
59193;SDS011;44967;48.598;15.650;2023-08-01T13:18:07;5.20;;;4.07;;
59193;SDS011;44967;48.598;15.650;2023-08-01T13:20:33;6.70;;;4.38;;
59193;SDS011;44967;48.598;15.650;2023-08-01T13:22:58;4.97;;;4.20;;
59193;SDS011;44967;48.598;15.650;2023-08-01T13:25:25;5.95;;;4.32;;
59193;SDS011;44967;48.598;15.650;2023-08-01T13:27:50;7.10;;;4.30;;
59193;SDS011;44967;48.598;15.650;2023-08-01T13:30:16;6.82;;;4.57;;
59193;SDS011;44967;48.598;15.650;2023-08-01T13:32:43;4.88;;;4.30;;
59193;SDS011;44967;48.598;15.650;2023-08-01T13:35:10;5.55;;;4.85;;
59193;SDS011;44967;48.598;15.650;2023-08-01T13:37:36;6.45;;;4.35;;
59193;SDS011;44967;48.598;15.650;2023-08-01T13:40:02;6.50;;;4.32;;
59193;SDS011;44967;48.598;15.650;2023-08-01T13:42:28;5.38;;;3.90;;
59193;SDS011;44967;48.598;15.650;2023-08-01T13:44:54;5.32;;;4.10;;
59193;SDS011;44967;48.598;15.650;2023-08-01T13:47:20;4.75;;;3.40;;
59193;SDS011;44967;48.598;15.650;2023-08-01T13:49:46;6.07;;;3.60;;
59193;SDS011;44967;48.598;15.650;2023-08-01T13:52:11;5.18;;;3.67;;
59193;SDS011;44967;48.598;15.650;2023-08-01T13:54:37;6.18;;;3.90;;
59193;SDS011;44967;48.598;15.650;2023-08-01T13:57:03;11.85;;;3.90;;
59193;SDS011;44967;48.598;15.650;2023-08-01T13:59:28;7.03;;;3.63;;
59193;SDS011;44967;48.598;15.650;2023-08-01T14:01:54;7.68;;;3.58;;
59193;SDS011;44967;48.598;15.650;2023-08-01T14:04:21;4.32;;;3.17;;
59193;SDS011;44967;48.598;15.650;2023-08-01T14:06:47;3.95;;;2.67;;
59193;SDS011;44967;48.598;15.650;2023-08-01T14:09:14;5.30;;;3.40;;
59193;SDS011;44967;48.598;15.650;2023-08-01T14:11:39;5.28;;;2.88;;
59193;SDS011;44967;48.598;15.650;2023-08-01T14:14:05;4.53;;;3.35;;
59193;SDS011;44967;48.598;15.650;2023-08-01T14:16:31;4.38;;;3.10;;
59193;SDS011;44967;48.598;15.650;2023-08-01T14:18:58;4.60;;;3.22;;
59193;SDS011;44967;48.598;15.650;2023-08-01T14:21:24;4.47;;;3.30;;
59193;SDS011;44967;48.598;15.650;2023-08-01T14:23:49;4.90;;;3.80;;
59193;SDS011;44967;48.598;15.650;2023-08-01T14:26:15;5.22;;;3.80;;
59193;SDS011;44967;48.598;15.650;2023-08-01T14:28:41;7.35;;;3.58;;